Time;durP1;ratioP1;P1;durP2;ratioP2;P2;SDS_P1;SDS_P2;PMS_P1;PMS_P2;Temp;Humidity;BMP_temperature;BMP_pressure;BME280_temperature;BME280_humidity;BME280_pressure;Samples;Min_cycle;Max_cycle;Signal;HPM_P1;HPM_P2
2023/04/14 00:00:42;;;;;;;2.05;1.20;;;17.80;47.10;;;;;;5013270;28;20197;-78
2023/04/14 00:03:09;;;;;;;1.33;1.10;;;17.70;47.00;;;;;;5013720;28;20623;-78
2023/04/14 00:05:36;;;;;;;1.58;1.30;;;17.70;47.00;;;;;;4999749;28;20203;-78
2023/04/14 00:08:05;;;;;;;1.20;1.17;;;17.80;47.10;;;;;;5017721;28;20195;-78
2023/04/14 00:10:32;;;;;;;1.20;1.10;;;17.70;47.00;;;;;;5017049;28;20216;-78
2023/04/14 00:13:00;;;;;;;1.25;1.15;;;17.70;46.90;;;;;;5016907;28;20217;-78
2023/04/14 00:15:27;;;;;;;1.42;1.30;;;17.70;46.90;;;;;;5017196;28;20661;-78
2023/04/14 00:17:54;;;;;;;1.45;1.30;;;17.70;46.90;;;;;;5018219;28;20196;-78
2023/04/14 00:20:21;;;;;;;1.20;1.10;;;17.70;46.90;;;;;;5016817;28;20723;-78
2023/04/14 00:22:48;;;;;;;1.00;1.00;;;17.70;46.90;;;;;;5016991;28;20270;-78
2023/04/14 00:25:17;;;;;;;1.40;1.30;;;17.70;46.90;;;;;;5016772;28;20679;-78
2023/04/14 00:27:43;;;;;;;1.48;1.20;;;17.60;46.90;;;;;;5016779;28;20197;-78
2023/04/14 00:30:11;;;;;;;1.48;1.38;;;17.60;46.90;;;;;;5017115;28;20200;-78
2023/04/14 00:32:39;;;;;;;1.55;1.35;;;17.60;46.90;;;;;;5016956;28;20305;-78
2023/04/14 00:35:06;;;;;;;2.95;1.40;;;17.60;46.90;;;;;;5016955;28;20228;-78
2023/04/14 00:37:33;;;;;;;1.45;1.35;;;17.60;46.90;;;;;;5026142;28;20200;-78
2023/04/14 00:40:00;;;;;;;1.33;1.23;;;17.60;47.00;;;;;;5026326;28;20205;-78
2023/04/14 00:42:29;;;;;;;1.42;1.20;;;17.60;47.00;;;;;;5032010;28;20236;-78
2023/04/14 00:44:56;;;;;;;1.70;1.20;;;17.60;46.90;;;;;;5017190;28;20280;-78
2023/04/14 00:47:23;;;;;;;1.60;1.38;;;17.60;47.00;;;;;;5017959;28;20228;-78
2023/04/14 00:49:50;;;;;;;1.52;1.42;;;17.50;46.90;;;;;;5018189;28;20207;-78
2023/04/14 00:52:17;;;;;;;1.45;1.35;;;17.50;46.90;;;;;;5017321;28;20227;-78
2023/04/14 00:54:44;;;;;;;1.98;1.60;;;17.50;46.80;;;;;;5017907;28;20562;-78
2023/04/14 00:57:11;;;;;;;1.77;1.48;;;17.50;46.80;;;;;;5017346;28;20205;-78
2023/04/14 00:59:39;;;;;;;1.25;1.15;;;17.50;46.70;;;;;;5017358;28;20299;-79
2023/04/14 01:02:06;;;;;;;1.85;1.40;;;17.50;46.90;;;;;;5017004;28;20239;-79
2023/04/14 01:04:33;;;;;;;1.55;1.45;;;17.50;46.90;;;;;;5016193;28;20197;-79
2023/04/14 01:07:00;;;;;;;1.33;1.23;;;17.50;46.90;;;;;;5016311;28;20659;-79
2023/04/14 01:09:27;;;;;;;2.35;1.52;;;17.50;46.90;;;;;;5015601;28;20659;-79
2023/04/14 01:12:01;;;;;;;1.50;1.33;;;17.50;46.90;;;;;;5015436;28;20307;-79
2023/04/14 01:14:33;;;;;;;1.40;1.30;;;17.40;46.90;;;;;;5016146;28;20326;-79
2023/04/14 01:17:05;;;;;;;1.60;1.50;;;17.40;46.90;;;;;;5014434;28;20247;-79
2023/04/14 01:19:37;;;;;;;2.20;1.50;;;17.40;46.90;;;;;;5015634;28;20199;-79
2023/04/14 01:22:06;;;;;;;2.33;1.40;;;17.40;47.00;;;;;;5015741;28;20679;-79
2023/04/14 01:24:40;;;;;;;1.75;1.65;;;17.40;47.00;;;;;;5015755;28;20193;-79
2023/04/14 01:27:11;;;;;;;1.55;1.30;;;17.40;46.90;;;;;;5015956;28;20204;-79
2023/04/14 01:29:49;;;;;;;2.60;1.33;;;17.30;47.00;;;;;;5017541;28;20200;-79
2023/04/14 01:32:19;;;;;;;1.67;1.45;;;17.40;47.00;;;;;;5020717;28;20730;-78
2023/04/14 01:34:50;;;;;;;1.77;1.40;;;17.30;46.90;;;;;;5018083;28;20209;-78
2023/04/14 01:37:21;;;;;;;1.50;1.40;;;17.30;46.90;;;;;;5018761;28;20208;-78
2023/04/14 01:39:50;;;;;;;1.40;1.30;;;17.30;47.00;;;;;;5026110;28;20200;-78
2023/04/14 01:42:19;;;;;;;1.73;1.40;;;17.30;47.00;;;;;;5025879;28;20217;-78
2023/04/14 01:44:46;;;;;;;1.75;1.40;;;17.30;46.90;;;;;;5025631;28;20204;-78
2023/04/14 01:47:14;;;;;;;2.13;1.30;;;17.30;46.80;;;;;;5019453;28;20193;-78
2023/04/14 01:49:42;;;;;;;1.50;1.40;;;17.30;46.90;;;;;;5019619;28;20208;-78
2023/04/14 01:52:10;;;;;;;1.50;1.40;;;17.30;46.80;;;;;;5017109;28;20231;-78
2023/04/14 01:54:38;;;;;;;1.58;1.48;;;17.30;46.80;;;;;;5017421;28;20687;-78
2023/04/14 01:57:05;;;;;;;1.50;1.40;;;17.30;46.90;;;;;;5018412;28;20299;-78
2023/04/14 01:59:33;;;;;;;1.60;1.50;;;17.30;46.80;;;;;;5018846;28;20193;-78
2023/04/14 02:02:01;;;;;;;1.48;1.38;;;17.20;46.70;;;;;;5017765;28;20193;-78
2023/04/14 02:04:28;;;;;;;2.03;1.48;;;17.20;46.70;;;;;;5016569;28;20562;-78
2023/04/14 02:06:57;;;;;;;2.08;1.40;;;17.20;46.70;;;;;;4999949;28;20216;-78
2023/04/14 02:09:26;;;;;;;1.58;1.48;;;17.20;46.70;;;;;;5019144;28;20216;-78
2023/04/14 02:11:53;;;;;;;1.48;1.38;;;17.20;46.70;;;;;;5018480;28;20193;-78
2023/04/14 02:14:20;;;;;;;1.65;1.55;;;17.20;46.70;;;;;;5018403;28;20193;-78
2023/04/14 02:16:48;;;;;;;1.50;1.40;;;17.20;46.70;;;;;;5018040;28;20220;-78
2023/04/14 02:19:16;;;;;;;1.40;1.30;;;17.20;46.80;;;;;;5000726;28;20208;-78
2023/04/14 02:21:43;;;;;;;1.60;1.50;;;17.10;46.60;;;;;;5016942;28;20200;-78
2023/04/14 02:24:11;;;;;;;1.42;1.33;;;17.10;46.60;;;;;;5017641;28;20611;-78
2023/04/14 02:26:40;;;;;;;1.40;1.30;;;17.10;46.70;;;;;;5017736;28;20177;-78
2023/04/14 02:29:14;;;;;;;1.25;1.15;;;17.10;46.70;;;;;;5017074;28;20575;-78
2023/04/14 02:31:43;;;;;;;1.55;1.30;;;17.10;46.70;;;;;;5016697;28;20640;-78
2023/04/14 02:34:12;;;;;;;1.67;1.48;;;17.10;46.80;;;;;;5016718;28;20216;-78
2023/04/14 02:36:40;;;;;;;1.73;1.38;;;17.10;46.80;;;;;;5016325;28;20225;-78
2023/04/14 02:39:20;;;;;;;1.40;1.30;;;17.00;46.80;;;;;;5022576;28;20678;-78
2023/04/14 02:41:50;;;;;;;1.42;1.33;;;17.00;46.90;;;;;;5019193;28;20200;-78
2023/04/14 02:44:18;;;;;;;1.77;1.40;;;17.00;47.00;;;;;;5015535;28;20243;-78
2023/04/14 02:46:48;;;;;;;1.45;1.35;;;17.00;47.00;;;;;;5014328;28;20197;-78
2023/04/14 02:49:15;;;;;;;1.38;1.27;;;17.00;47.00;;;;;;5014533;28;20203;-78
2023/04/14 02:51:42;;;;;;;2.88;1.50;;;17.00;46.90;;;;;;5015018;28;20235;-78
2023/04/14 02:54:10;;;;;;;1.50;1.40;;;17.00;47.00;;;;;;5014706;28;20250;-78
2023/04/14 02:56:43;;;;;;;1.85;1.50;;;17.00;47.60;;;;;;5014047;28;20204;-78
2023/04/14 02:59:11;;;;;;;1.95;1.40;;;17.00;47.10;;;;;;5014649;28;20227;-78
2023/04/14 03:01:46;;;;;;;1.80;1.63;;;16.90;47.00;;;;;;5014740;28;20542;-78
2023/04/14 03:04:13;;;;;;;1.30;1.20;;;16.90;47.00;;;;;;5014333;28;20199;-78
2023/04/14 03:06:41;;;;;;;1.60;1.50;;;16.90;46.90;;;;;;4998642;28;20275;-78
2023/04/14 03:09:08;;;;;;;1.67;1.13;;;17.00;47.00;;;;;;5013517;28;20193;-78
2023/04/14 03:11:36;;;;;;;1.50;1.40;;;16.90;46.90;;;;;;5013954;28;20201;-79
2023/04/14 03:14:05;;;;;;;1.60;1.50;;;17.00;46.90;;;;;;5013727;28;20743;-78
2023/04/14 03:16:33;;;;;;;1.65;1.50;;;16.90;46.80;;;;;;5014736;28;20223;-78
2023/04/14 03:19:01;;;;;;;2.20;1.50;;;17.00;46.80;;;;;;5013780;28;20676;-78
2023/04/14 03:21:29;;;;;;;1.80;1.55;;;17.00;46.80;;;;;;5042784;22;20232;-76
2023/04/14 03:23:57;;;;;;;1.50;1.40;;;17.00;46.90;;;;;;5012883;28;20220;-78
2023/04/14 03:26:24;;;;;;;1.75;1.38;;;16.90;46.70;;;;;;5013638;28;20200;-78
2023/04/14 03:28:52;;;;;;;2.13;1.48;;;17.00;46.70;;;;;;5013610;28;20585;-78
2023/04/14 03:31:21;;;;;;;1.52;1.42;;;17.00;46.80;;;;;;5013577;28;20612;-78
2023/04/14 03:33:54;;;;;;;1.52;1.42;;;17.00;46.70;;;;;;5013619;28;20721;-78
2023/04/14 03:36:22;;;;;;;1.58;1.48;;;17.00;46.70;;;;;;5013826;28;20236;-78
2023/04/14 03:38:49;;;;;;;1.40;1.30;;;17.00;46.60;;;;;;5014481;28;20203;-78
2023/04/14 03:41:17;;;;;;;1.58;1.40;;;17.00;46.60;;;;;;5003523;28;20319;-78
2023/04/14 03:43:45;;;;;;;1.80;1.40;;;17.00;46.60;;;;;;5020179;28;20216;-78
2023/04/14 03:46:14;;;;;;;1.55;1.45;;;17.00;46.50;;;;;;5020830;28;20541;-78
2023/04/14 03:48:44;;;;;;;1.70;1.50;;;17.10;46.40;;;;;;5020897;28;20197;-78
2023/04/14 03:51:14;;;;;;;1.52;1.40;;;17.00;46.30;;;;;;5020021;28;20207;-78
2023/04/14 03:53:42;;;;;;;1.83;1.60;;;17.00;46.20;;;;;;5020051;28;20216;-78
2023/04/14 03:56:12;;;;;;;1.58;1.40;;;17.10;46.40;;;;;;5019801;28;20641;-78
2023/04/14 03:58:39;;;;;;;1.45;1.35;;;17.10;46.20;;;;;;5020053;28;20205;-78
2023/04/14 04:01:06;;;;;;;1.60;1.50;;;17.00;46.20;;;;;;5019631;28;20208;-78
2023/04/14 04:03:34;;;;;;;1.95;1.67;;;17.00;46.20;;;;;;5019915;28;20216;-78
2023/04/14 04:06:02;;;;;;;1.52;1.42;;;17.00;46.20;;;;;;5019630;28;20207;-78
2023/04/14 04:08:30;;;;;;;1.55;1.40;;;17.10;46.20;;;;;;5019725;28;20200;-78
2023/04/14 04:10:57;;;;;;;1.52;1.42;;;17.00;46.20;;;;;;5020472;28;20205;-78
2023/04/14 04:13:25;;;;;;;1.77;1.40;;;17.00;46.20;;;;;;5020150;28;20255;-79
2023/04/14 04:15:52;;;;;;;1.40;1.30;;;17.10;46.20;;;;;;5022350;28;20180;-79
2023/04/14 04:18:21;;;;;;;1.85;1.58;;;17.10;46.20;;;;;;5021062;28;20686;-79
2023/04/14 04:20:48;;;;;;;1.55;1.45;;;17.00;46.20;;;;;;5020174;28;20609;-79
2023/04/14 04:23:17;;;;;;;1.73;1.63;;;17.00;46.20;;;;;;5020039;28;20243;-78
2023/04/14 04:25:44;;;;;;;1.83;1.40;;;17.00;46.20;;;;;;5019820;28;20232;-77
2023/04/14 04:28:20;;;;;;;1.60;1.50;;;17.10;46.30;;;;;;5020206;28;20192;-77
2023/04/14 04:30:48;;;;;;;1.60;1.40;;;17.00;46.20;;;;;;5019363;28;20200;-81
2023/04/14 04:33:15;;;;;;;2.10;1.50;;;17.00;46.20;;;;;;5019893;28;20208;-78
2023/04/14 04:35:43;;;;;;;1.60;1.50;;;17.00;46.00;;;;;;5015271;28;20220;-80
2023/04/14 04:38:10;;;;;;;1.90;1.50;;;17.10;45.90;;;;;;5017878;28;20220;-81
2023/04/14 04:40:41;;;;;;;2.05;1.85;;;17.00;46.00;;;;;;5035017;28;20260;-81
2023/04/14 04:43:17;;;;;;;3.33;1.58;;;17.00;45.80;;;;;;5010803;28;20212;-81
2023/04/14 04:46:02;;;;;;;2.38;1.55;;;17.10;46.10;;;;;;5022927;28;20209;-81
2023/04/14 04:48:30;;;;;;;1.77;1.50;;;17.10;46.50;;;;;;5022617;28;20192;-81
2023/04/14 04:50:57;;;;;;;1.70;1.50;;;17.10;46.30;;;;;;5003614;28;20205;-81
2023/04/14 04:53:24;;;;;;;1.63;1.52;;;17.20;46.70;;;;;;5019254;28;20275;-81
2023/04/14 04:55:52;;;;;;;2.70;1.77;;;17.10;46.70;;;;;;5019386;28;20200;-81
2023/04/14 04:58:19;;;;;;;2.17;1.67;;;17.10;46.60;;;;;;5019380;28;20247;-81
2023/04/14 05:00:47;;;;;;;1.60;1.50;;;17.20;46.50;;;;;;5019704;28;20221;-81
2023/04/14 05:03:14;;;;;;;2.65;1.60;;;17.10;46.50;;;;;;5019302;28;20216;-81
2023/04/14 05:05:41;;;;;;;1.77;1.48;;;17.10;46.70;;;;;;5022711;28;20658;-81
2023/04/14 05:08:08;;;;;;;2.20;1.50;;;17.10;46.50;;;;;;5017441;28;20196;-81
2023/04/14 05:10:35;;;;;;;2.53;1.60;;;17.20;46.80;;;;;;5016069;28;20196;-81
2023/04/14 05:13:03;;;;;;;1.52;1.42;;;17.20;46.90;;;;;;5017359;28;20622;-81
2023/04/14 05:15:30;;;;;;;3.38;1.88;;;17.20;46.70;;;;;;4999528;28;20201;-81
2023/04/14 05:17:57;;;;;;;2.33;1.70;;;17.20;46.80;;;;;;5017470;28;20584;-80
2023/04/14 05:20:25;;;;;;;2.60;1.98;;;17.20;47.00;;;;;;5016575;28;20199;-81
2023/04/14 05:22:52;;;;;;;2.72;2.20;;;17.20;46.70;;;;;;5016009;28;20696;-81
2023/04/14 05:25:19;;;;;;;2.58;2.10;;;17.20;46.60;;;;;;5015699;28;20539;-81
2023/04/14 05:27:46;;;;;;;3.42;1.88;;;17.20;46.80;;;;;;5015669;28;20205;-79
2023/04/14 05:30:15;;;;;;;1.80;1.70;;;17.20;46.80;;;;;;5016035;28;20280;-79
2023/04/14 05:32:43;;;;;;;1.70;1.60;;;17.30;46.60;;;;;;5015487;28;20220;-79
2023/04/14 05:35:10;;;;;;;3.15;1.60;;;17.30;46.80;;;;;;5016367;28;20189;-79
2023/04/14 05:37:37;;;;;;;2.28;2.08;;;17.40;46.50;;;;;;4999613;28;20225;-79
2023/04/14 05:40:05;;;;;;;2.53;1.63;;;17.50;46.60;;;;;;5015272;28;20200;-78
2023/04/14 05:42:32;;;;;;;3.78;1.48;;;17.70;46.50;;;;;;5015636;28;20216;-79
2023/04/14 05:45:00;;;;;;;1.83;1.52;;;18.00;45.90;;;;;;5015772;28;20227;-81
2023/04/14 05:47:29;;;;;;;1.80;1.70;;;18.20;45.50;;;;;;5017720;28;20280;-81
2023/04/14 05:49:57;;;;;;;1.80;1.50;;;18.40;45.00;;;;;;5017937;28;20192;-81
2023/04/14 05:52:25;;;;;;;1.65;1.55;;;18.60;44.80;;;;;;5015713;28;20227;-81
2023/04/14 05:54:53;;;;;;;2.20;1.70;;;18.80;44.40;;;;;;5016685;28;20205;-81
2023/04/14 05:57:20;;;;;;;1.98;1.77;;;18.90;43.90;;;;;;5015835;28;20220;-81
2023/04/14 05:59:47;;;;;;;2.97;1.80;;;19.20;44.00;;;;;;5015470;28;20547;-81
2023/04/14 06:02:14;;;;;;;2.05;1.67;;;19.20;43.60;;;;;;4999182;28;20667;-81
2023/04/14 06:04:43;;;;;;;1.90;1.60;;;19.40;43.40;;;;;;5015710;28;20251;-81
2023/04/14 06:07:10;;;;;;;2.28;1.77;;;19.60;43.10;;;;;;5017036;28;20193;-81
2023/04/14 06:09:37;;;;;;;2.03;1.80;;;19.70;42.80;;;;;;5017587;28;20189;-81
2023/04/14 06:12:05;;;;;;;2.03;1.63;;;19.80;42.60;;;;;;5015790;28;20239;-82
2023/04/14 06:14:32;;;;;;;2.67;1.60;;;20.00;42.40;;;;;;5015736;28;20200;-82
2023/04/14 06:17:00;;;;;;;1.73;1.50;;;20.10;42.10;;;;;;5015667;28;20223;-82
2023/04/14 06:19:27;;;;;;;2.28;1.50;;;20.20;42.00;;;;;;4999159;28;20644;-82
2023/04/14 06:21:56;;;;;;;2.05;1.65;;;20.30;41.60;;;;;;5014979;28;20215;-82
2023/04/14 06:24:23;;;;;;;2.53;1.90;;;20.40;41.60;;;;;;5015091;28;20259;-82
2023/04/14 06:26:50;;;;;;;2.20;1.77;;;20.50;41.70;;;;;;5015400;28;20267;-82
2023/04/14 06:29:18;;;;;;;1.60;1.50;;;20.50;41.40;;;;;;4982427;28;20210;-81
2023/04/14 06:31:45;;;;;;;3.95;1.80;;;20.50;41.40;;;;;;5016038;28;20251;-82
2023/04/14 06:34:12;;;;;;;2.00;1.80;;;20.50;41.30;;;;;;5015105;28;20687;-82
2023/04/14 06:36:40;;;;;;;2.17;1.85;;;20.50;41.30;;;;;;5014714;28;20199;-82
2023/04/14 06:39:08;;;;;;;1.77;1.67;;;20.40;41.30;;;;;;4998969;28;20193;-82
2023/04/14 06:41:35;;;;;;;2.95;2.00;;;20.40;41.50;;;;;;5015170;28;20291;-82
2023/04/14 06:44:04;;;;;;;2.03;1.88;;;20.30;41.40;;;;;;5016072;28;20224;-82
2023/04/14 06:46:34;;;;;;;2.60;1.83;;;20.30;41.50;;;;;;4999115;28;20275;-82
2023/04/14 06:49:02;;;;;;;1.77;1.67;;;20.30;41.50;;;;;;5015320;28;20224;-82
2023/04/14 06:51:31;;;;;;;2.05;1.73;;;20.40;41.60;;;;;;5014506;28;20291;-82
2023/04/14 06:53:58;;;;;;;1.77;1.67;;;20.40;41.60;;;;;;5013992;28;20212;-82
2023/04/14 06:56:27;;;;;;;1.98;1.77;;;20.40;41.60;;;;;;5014124;28;20201;-81
2023/04/14 06:58:55;;;;;;;2.30;2.10;;;20.50;41.40;;;;;;5014687;28;20224;-81
2023/04/14 07:01:22;;;;;;;2.10;1.88;;;20.60;41.30;;;;;;5013888;28;20219;-81
2023/04/14 07:03:50;;;;;;;1.90;1.80;;;20.60;41.20;;;;;;5013707;28;20216;-81
2023/04/14 07:06:17;;;;;;;2.03;1.83;;;20.70;41.20;;;;;;5013719;28;20664;-81
2023/04/14 07:08:45;;;;;;;1.80;1.65;;;20.80;41.20;;;;;;4997849;28;20291;-81
2023/04/14 07:11:12;;;;;;;2.42;1.90;;;21.00;41.20;;;;;;5014810;28;20251;-81
2023/04/14 07:13:40;;;;;;;1.65;1.45;;;21.20;41.00;;;;;;5014688;28;20216;-81
2023/04/14 07:16:08;;;;;;;2.10;1.80;;;21.30;40.50;;;;;;5014684;28;20667;-81
2023/04/14 07:18:35;;;;;;;2.63;1.80;;;21.40;40.30;;;;;;5014248;28;20239;-82
2023/04/14 07:21:02;;;;;;;2.47;1.83;;;21.60;40.10;;;;;;5014169;28;20643;-82
2023/04/14 07:23:31;;;;;;;3.58;1.77;;;21.80;39.90;;;;;;5014210;28;20224;-82
2023/04/14 07:25:59;;;;;;;1.98;1.67;;;21.80;39.50;;;;;;5014923;28;20197;-82
2023/04/14 07:28:27;;;;;;;2.22;1.60;;;22.00;39.40;;;;;;5013464;28;20193;-82
2023/04/14 07:30:57;;;;;;;2.25;1.60;;;22.10;39.20;;;;;;5014053;28;20296;-82
2023/04/14 07:33:25;;;;;;;1.98;1.67;;;22.20;39.10;;;;;;5013774;28;20296;-81
2023/04/14 07:35:52;;;;;;;2.20;1.73;;;22.30;38.90;;;;;;5014651;28;20242;-81
2023/04/14 07:38:19;;;;;;;1.75;1.45;;;22.40;39.30;;;;;;4996890;28;20232;-81
2023/04/14 07:40:46;;;;;;;2.38;1.55;;;22.50;38.70;;;;;;5013092;28;20201;-81
2023/04/14 07:43:13;;;;;;;2.65;1.40;;;22.50;38.40;;;;;;5013409;28;20696;-81
2023/04/14 07:45:41;;;;;;;1.30;1.20;;;22.60;38.60;;;;;;5014605;28;20196;-81
2023/04/14 07:48:10;;;;;;;1.48;1.38;;;22.60;38.30;;;;;;4997726;28;20287;-81
2023/04/14 07:50:37;;;;;;;1.52;1.40;;;22.70;38.20;;;;;;5013336;28;20208;-81
2023/04/14 07:53:05;;;;;;;1.88;1.30;;;22.70;38.00;;;;;;5013189;28;20225;-81
2023/04/14 07:55:32;;;;;;;1.90;1.67;;;22.80;37.90;;;;;;5013037;28;20200;-81
2023/04/14 07:57:59;;;;;;;1.77;1.38;;;22.90;37.70;;;;;;5013487;28;20594;-81
2023/04/14 08:00:26;;;;;;;2.28;1.30;;;23.00;37.80;;;;;;5012922;28;20266;-81
2023/04/14 08:02:53;;;;;;;1.98;1.55;;;23.00;37.60;;;;;;5013777;28;20217;-81
2023/04/14 08:05:22;;;;;;;1.65;1.55;;;23.10;37.50;;;;;;5013005;28;20201;-81
2023/04/14 08:07:50;;;;;;;2.35;1.48;;;23.10;37.40;;;;;;5013388;28;20192;-81
2023/04/14 08:10:17;;;;;;;1.40;1.30;;;23.20;37.40;;;;;;5013523;28;20660;-81
2023/04/14 08:12:45;;;;;;;1.67;1.58;;;23.20;37.30;;;;;;5018056;28;20263;-81
2023/04/14 08:15:12;;;;;;;1.75;1.25;;;23.30;37.20;;;;;;5017895;28;20201;-82
2023/04/14 08:17:40;;;;;;;1.70;1.60;;;23.30;37.10;;;;;;5013698;28;20216;-82
2023/04/14 08:20:08;;;;;;;1.60;1.40;;;23.40;37.20;;;;;;5013502;28;20201;-82
2023/04/14 08:22:36;;;;;;;1.40;1.30;;;23.40;37.00;;;;;;5013273;28;20595;-81
2023/04/14 08:25:04;;;;;;;1.50;1.40;;;23.50;36.80;;;;;;5013869;28;20211;-81
2023/04/14 08:27:31;;;;;;;2.03;1.60;;;23.50;36.60;;;;;;5017310;28;20231;-81
2023/04/14 08:29:59;;;;;;;1.95;1.50;;;23.60;36.60;;;;;;5017443;28;20212;-81
2023/04/14 08:32:26;;;;;;;1.98;1.20;;;23.60;36.50;;;;;;5017703;28;20223;-81
2023/04/14 08:34:53;;;;;;;1.42;1.30;;;23.60;36.40;;;;;;5017666;28;20196;-82
2023/04/14 08:37:21;;;;;;;1.48;1.38;;;23.70;36.50;;;;;;5017751;28;20212;-81
2023/04/14 08:39:50;;;;;;;2.28;1.60;;;23.70;36.40;;;;;;5018159;28;20200;-82
2023/04/14 08:42:18;;;;;;;2.13;1.52;;;23.80;36.40;;;;;;5017900;28;20217;-82
2023/04/14 08:44:45;;;;;;;2.45;1.40;;;23.80;36.40;;;;;;5017852;28;20204;-82
2023/04/14 08:47:12;;;;;;;2.00;1.50;;;23.80;36.30;;;;;;5017834;28;20208;-81
2023/04/14 08:49:41;;;;;;;1.48;1.23;;;23.80;36.20;;;;;;5017012;28;20197;-82
2023/04/14 08:52:09;;;;;;;1.50;1.40;;;23.90;36.20;;;;;;5017165;28;20227;-82
2023/04/14 08:54:38;;;;;;;1.70;1.60;;;23.90;36.20;;;;;;5016326;28;20196;-82
2023/04/14 08:57:07;;;;;;;2.30;1.40;;;23.90;36.10;;;;;;5016593;28;20625;-81
2023/04/14 08:59:34;;;;;;;1.48;1.38;;;24.00;36.20;;;;;;5016104;28;20308;-82
2023/04/14 09:02:01;;;;;;;1.85;1.20;;;24.00;36.10;;;;;;5016873;28;20200;-82
2023/04/14 09:04:28;;;;;;;2.38;1.10;;;24.00;36.10;;;;;;5016313;28;20201;-82
2023/04/14 09:06:56;;;;;;;2.72;1.50;;;24.00;35.90;;;;;;5016374;28;20208;-82
2023/04/14 09:09:23;;;;;;;1.95;1.60;;;24.00;35.90;;;;;;5016410;28;20193;-82
2023/04/14 09:11:51;;;;;;;1.60;1.40;;;24.00;36.00;;;;;;5016212;28;20251;-82
2023/04/14 09:14:20;;;;;;;1.55;1.35;;;24.00;36.10;;;;;;5017834;28;20221;-82
2023/04/14 09:16:51;;;;;;;1.35;1.23;;;24.00;36.10;;;;;;5017491;28;20204;-82
2023/04/14 09:19:22;;;;;;;2.63;1.48;;;24.00;36.10;;;;;;5016197;28;20256;-82
2023/04/14 09:21:49;;;;;;;1.30;1.20;;;24.00;36.10;;;;;;5015719;28;20315;-82
2023/04/14 09:24:17;;;;;;;1.88;1.40;;;24.00;36.10;;;;;;5016490;28;20200;-82
2023/04/14 09:26:44;;;;;;;2.00;1.35;;;24.00;35.90;;;;;;5015910;28;20224;-82
2023/04/14 09:29:12;;;;;;;2.00;1.30;;;24.10;35.90;;;;;;5015662;28;20678;-82
2023/04/14 09:31:40;;;;;;;1.60;1.40;;;24.10;35.80;;;;;;5015529;28;20326;-81
2023/04/14 09:34:15;;;;;;;1.83;1.30;;;24.20;35.70;;;;;;5015697;28;20621;-81
2023/04/14 09:36:42;;;;;;;1.77;1.40;;;24.10;35.80;;;;;;5015563;28;20192;-81
2023/04/14 09:39:16;;;;;;;1.60;1.30;;;24.10;35.90;;;;;;5015669;28;20244;-82
2023/04/14 09:41:47;;;;;;;1.33;1.20;;;24.00;36.10;;;;;;5016766;28;20193;-81
2023/04/14 09:44:14;;;;;;;1.60;1.20;;;23.90;36.60;;;;;;5015949;28;20651;-82
2023/04/14 09:46:59;;;;;;;1.73;1.50;;;23.90;36.10;;;;;;5015927;28;20205;-82
2023/04/14 09:49:26;;;;;;;1.48;1.38;;;23.80;36.20;;;;;;5015639;28;20192;-81
2023/04/14 09:51:54;;;;;;;1.70;1.42;;;23.80;36.30;;;;;;5015594;28;20197;-82
2023/04/14 09:54:25;;;;;;;1.88;1.20;;;23.60;36.40;;;;;;5015351;28;20223;-82
2023/04/14 09:56:52;;;;;;;1.90;1.33;;;23.50;36.60;;;;;;5015417;28;20230;-81
2023/04/14 09:59:30;;;;;;;1.42;1.20;;;23.50;36.50;;;;;;4999461;28;20336;-81
2023/04/14 10:02:00;;;;;;;2.67;1.30;;;23.50;36.40;;;;;;4999133;28;20631;-81
2023/04/14 10:04:27;;;;;;;1.45;1.30;;;23.60;36.40;;;;;;5015440;28;20196;-81
2023/04/14 10:06:58;;;;;;;1.77;1.20;;;23.60;36.40;;;;;;4999766;28;20196;-81
2023/04/14 10:09:26;;;;;;;1.80;1.50;;;23.60;36.20;;;;;;4999140;28;20204;-81
2023/04/14 10:12:10;;;;;;;1.35;1.20;;;23.60;36.10;;;;;;5014949;28;20193;-81
2023/04/14 10:14:39;;;;;;;1.42;1.33;;;23.70;36.10;;;;;;5014694;28;20196;-81
2023/04/14 10:17:08;;;;;;;1.25;1.15;;;23.70;36.10;;;;;;5014722;28;20200;-81
2023/04/14 10:19:35;;;;;;;1.88;1.20;;;23.70;36.10;;;;;;5014570;28;20268;-82
2023/04/14 10:22:02;;;;;;;1.95;1.33;;;23.70;35.90;;;;;;5014619;28;20255;-82
2023/04/14 10:24:29;;;;;;;1.67;1.15;;;23.70;36.00;;;;;;5014376;28;20299;-82
2023/04/14 10:26:57;;;;;;;1.38;1.27;;;23.70;36.00;;;;;;5015615;28;20189;-81
2023/04/14 10:29:23;;;;;;;1.58;1.23;;;23.70;36.10;;;;;;5014686;28;20197;-81
2023/04/14 10:31:52;;;;;;;2.20;1.20;;;23.60;36.20;;;;;;5014552;28;20200;-81
2023/04/14 10:34:21;;;;;;;1.35;1.25;;;23.60;36.40;;;;;;5014435;28;20323;-81
2023/04/14 10:36:49;;;;;;;1.70;1.33;;;23.50;36.40;;;;;;5014740;28;20208;-81
2023/04/14 10:39:20;;;;;;;2.15;1.42;;;23.40;36.50;;;;;;5014514;28;20312;-81
2023/04/14 10:41:48;;;;;;;1.33;1.23;;;23.40;36.70;;;;;;5014603;28;20702;-81
2023/04/14 10:44:25;;;;;;;2.70;1.42;;;23.30;36.80;;;;;;5014937;28;20202;-81
2023/04/14 10:46:54;;;;;;;1.40;1.30;;;23.20;36.80;;;;;;5016113;28;20215;-81
2023/04/14 10:49:25;;;;;;;1.60;1.30;;;23.20;37.50;;;;;;5013392;28;20292;-81
2023/04/14 10:51:52;;;;;;;1.40;1.30;;;23.20;36.90;;;;;;5014379;28;20197;-81
2023/04/14 10:54:20;;;;;;;2.08;1.48;;;23.10;36.80;;;;;;5014416;28;20698;-81
2023/04/14 10:57:08;;;;;;;1.55;1.40;;;23.10;36.80;;;;;;5015916;28;20189;-81
2023/04/14 10:59:36;;;;;;;1.38;1.27;;;23.10;37.00;;;;;;5013876;28;20581;-81
2023/04/14 11:02:02;;;;;;;1.58;1.48;;;23.10;37.00;;;;;;5014057;28;20246;-81
2023/04/14 11:04:31;;;;;;;1.30;1.20;;;23.00;37.00;;;;;;5014571;28;20235;-81
2023/04/14 11:06:59;;;;;;;1.63;1.30;;;23.00;36.90;;;;;;5014487;28;20207;-81
2023/04/14 11:09:32;;;;;;;1.52;1.40;;;23.00;37.00;;;;;;5014736;28;20201;-81
2023/04/14 11:12:03;;;;;;;2.50;1.48;;;23.00;37.10;;;;;;5013724;28;20601;-81
2023/04/14 11:14:31;;;;;;;1.75;1.30;;;23.00;37.20;;;;;;5014074;28;20189;-81
2023/04/14 11:17:00;;;;;;;1.30;1.20;;;23.00;37.20;;;;;;5014346;28;20200;-81
2023/04/14 11:19:28;;;;;;;1.35;1.25;;;22.90;37.20;;;;;;5013580;28;20234;-81
2023/04/14 11:21:56;;;;;;;1.30;1.20;;;22.90;37.20;;;;;;4997973;28;20219;-81
2023/04/14 11:24:24;;;;;;;1.30;1.20;;;22.90;37.30;;;;;;5014710;28;20666;-81
2023/04/14 11:26:52;;;;;;;1.67;1.30;;;22.90;37.30;;;;;;5016409;28;20271;-81
2023/04/14 11:29:20;;;;;;;2.80;1.45;;;22.90;37.30;;;;;;5002779;28;20200;-81
2023/04/14 11:31:47;;;;;;;2.53;1.48;;;22.90;37.40;;;;;;5014140;28;20288;-81
2023/04/14 11:34:14;;;;;;;1.58;1.30;;;23.00;37.40;;;;;;5014416;28;20690;-81
2023/04/14 11:36:41;;;;;;;1.42;1.20;;;23.00;37.50;;;;;;5015184;28;20197;-81
2023/04/14 11:39:10;;;;;;;1.50;1.40;;;22.90;37.40;;;;;;5014660;28;20687;-81
2023/04/14 11:41:38;;;;;;;1.90;1.30;;;23.00;37.50;;;;;;5014336;28;20207;-82
2023/04/14 11:44:05;;;;;;;1.33;1.23;;;22.90;37.50;;;;;;5013949;28;20684;-82
2023/04/14 11:46:32;;;;;;;3.05;1.35;;;22.90;37.50;;;;;;5014337;28;20278;-82
2023/04/14 11:48:59;;;;;;;1.75;1.35;;;22.90;37.60;;;;;;5014184;28;20188;-82
2023/04/14 11:51:31;;;;;;;1.40;1.20;;;22.90;37.50;;;;;;5013535;28;20298;-82
2023/04/14 11:53:59;;;;;;;2.47;1.48;;;22.90;37.60;;;;;;5013294;28;20213;-80
2023/04/14 11:56:27;;;;;;;2.38;1.40;;;22.90;37.70;;;;;;5014034;28;20648;-80
2023/04/14 11:59:01;;;;;;;2.03;1.45;;;22.90;37.60;;;;;;5013856;28;20217;-81
2023/04/14 12:01:29;;;;;;;2.17;1.33;;;22.80;37.60;;;;;;5017471;28;20682;-81
2023/04/14 12:03:56;;;;;;;2.00;1.30;;;22.90;37.70;;;;;;5018013;28;20217;-83
2023/04/14 12:06:25;;;;;;;2.30;1.30;;;22.80;37.70;;;;;;5018259;28;20197;-83
2023/04/14 12:08:52;;;;;;;1.92;1.23;;;22.80;37.70;;;;;;5024826;28;20196;-80
2023/04/14 12:11:20;;;;;;;1.35;1.25;;;22.70;37.70;;;;;;5027853;28;20665;-79
2023/04/14 12:13:49;;;;;;;1.55;1.17;;;22.70;37.80;;;;;;5029283;28;20274;-80
2023/04/14 12:16:17;;;;;;;1.52;1.20;;;22.70;37.90;;;;;;5027732;28;20193;-81
2023/04/14 12:18:44;;;;;;;1.10;1.00;;;22.70;37.80;;;;;;5024720;28;20220;-83
2023/04/14 12:21:11;;;;;;;2.03;1.30;;;22.70;37.90;;;;;;5024468;28;20678;-80
2023/04/14 12:23:39;;;;;;;1.63;1.20;;;22.70;38.00;;;;;;5024322;28;20217;-80
2023/04/14 12:26:10;;;;;;;1.95;1.42;;;22.60;37.80;;;;;;5006234;28;20205;-80
2023/04/14 12:28:40;;;;;;;1.52;1.42;;;22.70;37.90;;;;;;5021921;28;20562;-81
2023/04/14 12:31:09;;;;;;;1.00;1.00;;;22.60;37.80;;;;;;5021890;28;20204;-81
2023/04/14 12:33:36;;;;;;;2.35;1.30;;;22.60;37.90;;;;;;5021892;28;20280;-81
2023/04/14 12:36:04;;;;;;;1.58;1.35;;;22.60;37.90;;;;;;5021015;28;20204;-81
2023/04/14 12:38:30;;;;;;;2.03;1.30;;;22.60;37.90;;;;;;5021220;28;20227;-81
2023/04/14 12:40:58;;;;;;;2.78;1.30;;;22.60;38.00;;;;;;5020355;28;20197;-81
2023/04/14 12:43:29;;;;;;;1.30;1.20;;;22.60;38.00;;;;;;5020264;28;20216;-81
2023/04/14 12:45:57;;;;;;;1.38;1.27;;;22.60;38.00;;;;;;5020077;28;20304;-80
2023/04/14 12:48:39;;;;;;;2.17;1.10;;;22.60;38.10;;;;;;5020267;28;20201;-80
2023/04/14 12:51:08;;;;;;;1.40;1.20;;;22.60;37.80;;;;;;5019661;28;20197;-80
2023/04/14 12:53:35;;;;;;;3.03;1.58;;;22.60;38.00;;;;;;5019538;28;20286;-81